This is the latest recevied weather packets stored in our database for station/object KF4LQQ-13. If no packets are shown the sender has not sent any weather packets the latest 1 day(s).
| Time | Temp. | Humidity | Pressure | Rain* | Wind** | Luminosity | Snow |
|---|---|---|---|---|---|---|---|
| 1777998383 | 27.78° C | - | 1013.4 hPa | 0 mm | 3.13 m/s, 98° | - | - |
| 1777997783 | 27.22° C | - | 1013.4 hPa | 0 mm | 3.58 m/s, 56° | - | - |
| 1777997182 | 27.22° C | - | 1013.5 hPa | 0 mm | 1.79 m/s, 77° | - | - |
| 1777996581 | 26.67° C | - | 1013.6 hPa | 0 mm | 3.58 m/s, 97° | - | - |
| 1777995981 | 26.67° C | - | 1013.7 hPa | 0 mm | 2.68 m/s, 96° | - | - |
| 1777995381 | 26.67° C | - | 1013.8 hPa | 0 mm | 3.58 m/s, 93° | - | - |
| 1777994781 | 26.11° C | - | 1013.8 hPa | 0 mm | 3.58 m/s, 82° | - | - |
| 1777994180 | 26.11° C | - | 1013.9 hPa | 0 mm | 4.92 m/s, 69° | - | - |
| 1777993579 | 25.56° C | - | 1013.9 hPa | 0 mm | 3.13 m/s, 89° | - | - |
| 1777992977 | 25.56° C | - | 1013.9 hPa | 0 mm | 3.13 m/s, 59° | - | - |
| 1777992377 | 25° C | - | 1013.7 hPa | 0 mm | 3.13 m/s, 105° | - | - |
| 1777991777 | 24.44° C | - | 1013.5 hPa | 0 mm | 2.24 m/s, 97° | - | - |
| 1777991330 | 23.89° C | - | 1013.3 hPa | 0 mm | 3.13 m/s, 24° | - | - |
| 1777991177 | 24.44° C | - | 1013.4 hPa | 0 mm | 1.79 m/s, 86° | - | - |
| 1777990576 | 23.89° C | - | 1013.3 hPa | 0 mm | 3.13 m/s, 24° | - | - |
| 1777989976 | 23.33° C | - | 1013.2 hPa | 0 mm | 4.02 m/s, 59° | - | - |
| 1777989375 | 23.33° C | - | 1013.2 hPa | 0 mm | 3.58 m/s, 45° | - | - |
| 1777988775 | 22.78° C | - | 1013.1 hPa | 0 mm | 3.58 m/s, 94° | - | - |
| 1777988175 | 22.78° C | - | 1013.1 hPa | 0 mm | 3.13 m/s, 82° | - | - |
| 1777987574 | 22.78° C | - | 1013.1 hPa | 0 mm | 3.13 m/s, 98° | - | - |
| 1777986974 | 22.22° C | - | 1013.1 hPa | 0 mm | 3.58 m/s, 101° | - | - |
| 1777986374 | 22.22° C | - | 1013.1 hPa | 0 mm | 2.68 m/s, 83° | - | - |
| 1777985773 | 21.67° C | - | 1013 hPa | 0 mm | 2.68 m/s, 96° | - | - |
| 1777985173 | 21.67° C | - | 1013.1 hPa | 0 mm | 3.13 m/s, 84° | - | - |
| 1777984572 | 21.67° C | - | 1013.1 hPa | 0 mm | 2.68 m/s, 98° | - | - |
* Rain since midnight (hover to see other rain measurements)
** Current wind speed in m/s (hover to see current wind gust speed)